sensor_id;sensor_type;location;lat;lon;timestamp;P1;durP1;ratioP1;P2;durP2;ratioP2
10596;SDS011;5346;48.766;8.674;2022-11-11T00:01:34;4.37;;;1.70;;
10596;SDS011;5346;48.766;8.674;2022-11-11T00:04:09;5.30;;;1.80;;
10596;SDS011;5346;48.766;8.674;2022-11-11T00:06:36;6.43;;;1.97;;
10596;SDS011;5346;48.766;8.674;2022-11-11T00:09:04;9.40;;;2.20;;
10596;SDS011;5346;48.766;8.674;2022-11-11T00:11:38;3.50;;;1.80;;
10596;SDS011;5346;48.766;8.674;2022-11-11T00:14:05;4.53;;;1.70;;
10596;SDS011;5346;48.766;8.674;2022-11-11T00:16:34;3.83;;;2.20;;
10596;SDS011;5346;48.766;8.674;2022-11-11T00:19:27;4.47;;;2.00;;
10596;SDS011;5346;48.766;8.674;2022-11-11T00:22:19;5.97;;;2.40;;
10596;SDS011;5346;48.766;8.674;2022-11-11T00:25:14;8.53;;;2.30;;
10596;SDS011;5346;48.766;8.674;2022-11-11T00:27:43;7.50;;;2.30;;
10596;SDS011;5346;48.766;8.674;2022-11-11T00:30:11;7.13;;;2.33;;
10596;SDS011;5346;48.766;8.674;2022-11-11T00:32:45;6.70;;;2.80;;
10596;SDS011;5346;48.766;8.674;2022-11-11T00:35:12;4.80;;;2.03;;
10596;SDS011;5346;48.766;8.674;2022-11-11T00:38:05;5.43;;;2.40;;
10596;SDS011;5346;48.766;8.674;2022-11-11T00:40:34;6.67;;;2.17;;
10596;SDS011;5346;48.766;8.674;2022-11-11T00:43:06;4.77;;;1.97;;
10596;SDS011;5346;48.766;8.674;2022-11-11T00:45:40;8.40;;;2.20;;
10596;SDS011;5346;48.766;8.674;2022-11-11T00:48:07;7.20;;;2.33;;
10596;SDS011;5346;48.766;8.674;2022-11-11T00:51:01;7.53;;;2.00;;
10596;SDS011;5346;48.766;8.674;2022-11-11T00:53:29;4.43;;;1.97;;
10596;SDS011;5346;48.766;8.674;2022-11-11T00:56:08;6.90;;;1.80;;
10596;SDS011;5346;48.766;8.674;2022-11-11T00:58:48;6.80;;;2.20;;
10596;SDS011;5346;48.766;8.674;2022-11-11T01:01:23;5.13;;;2.20;;
10596;SDS011;5346;48.766;8.674;2022-11-11T01:03:51;6.47;;;2.07;;
10596;SDS011;5346;48.766;8.674;2022-11-11T01:06:20;6.30;;;2.20;;
10596;SDS011;5346;48.766;8.674;2022-11-11T01:08:54;5.23;;;1.93;;
10596;SDS011;5346;48.766;8.674;2022-11-11T01:11:22;6.10;;;2.23;;
10596;SDS011;5346;48.766;8.674;2022-11-11T01:13:50;2.07;;;1.70;;
10596;SDS011;5346;48.766;8.674;2022-11-11T01:16:24;8.50;;;2.13;;
10596;SDS011;5346;48.766;8.674;2022-11-11T01:18:53;3.83;;;2.10;;
10596;SDS011;5346;48.766;8.674;2022-11-11T01:21:22;10.50;;;1.63;;
10596;SDS011;5346;48.766;8.674;2022-11-11T01:23:57;3.17;;;1.63;;
10596;SDS011;5346;48.766;8.674;2022-11-11T01:26:26;4.60;;;2.07;;
10596;SDS011;5346;48.766;8.674;2022-11-11T01:28:57;5.07;;;1.70;;
10596;SDS011;5346;48.766;8.674;2022-11-11T01:31:32;5.50;;;1.63;;
10596;SDS011;5346;48.766;8.674;2022-11-11T01:34:00;6.03;;;2.10;;
10596;SDS011;5346;48.766;8.674;2022-11-11T01:36:27;7.53;;;1.97;;
10596;SDS011;5346;48.766;8.674;2022-11-11T01:39:02;4.90;;;2.00;;
10596;SDS011;5346;48.766;8.674;2022-11-11T01:41:31;7.10;;;1.90;;
10596;SDS011;5346;48.766;8.674;2022-11-11T01:52:17;6.57;;;2.00;;
10596;SDS011;5346;48.766;8.674;2022-11-11T01:54:53;6.87;;;1.70;;
10596;SDS011;5346;48.766;8.674;2022-11-11T01:57:52;3.63;;;1.60;;
10596;SDS011;5346;48.766;8.674;2022-11-11T02:00:35;2.97;;;1.53;;
10596;SDS011;5346;48.766;8.674;2022-11-11T02:03:09;6.17;;;1.80;;
10596;SDS011;5346;48.766;8.674;2022-11-11T02:05:38;3.87;;;1.40;;
10596;SDS011;5346;48.766;8.674;2022-11-11T02:08:17;4.30;;;1.70;;
10596;SDS011;5346;48.766;8.674;2022-11-11T02:11:06;2.97;;;1.57;;
10596;SDS011;5346;48.766;8.674;2022-11-11T02:13:48;0.93;;;0.93;;
10596;SDS011;5346;48.766;8.674;2022-11-11T02:16:34;3.53;;;1.30;;
10596;SDS011;5346;48.766;8.674;2022-11-11T02:19:09;5.60;;;1.20;;
10596;SDS011;5346;48.766;8.674;2022-11-11T02:21:43;3.10;;;1.33;;
10596;SDS011;5346;48.766;8.674;2022-11-11T02:24:25;6.17;;;1.40;;
10596;SDS011;5346;48.766;8.674;2022-11-11T02:26:55;1.70;;;1.27;;
10596;SDS011;5346;48.766;8.674;2022-11-11T02:29:24;2.70;;;1.40;;
10596;SDS011;5346;48.766;8.674;2022-11-11T02:32:00;2.07;;;1.03;;
10596;SDS011;5346;48.766;8.674;2022-11-11T02:34:29;2.77;;;1.10;;
10596;SDS011;5346;48.766;8.674;2022-11-11T02:37:11;5.43;;;1.20;;
10596;SDS011;5346;48.766;8.674;2022-11-11T02:39:41;2.80;;;1.30;;
10596;SDS011;5346;48.766;8.674;2022-11-11T02:42:34;5.20;;;1.10;;
10596;SDS011;5346;48.766;8.674;2022-11-11T02:45:02;3.50;;;1.10;;
10596;SDS011;5346;48.766;8.674;2022-11-11T02:47:37;2.43;;;1.13;;
10596;SDS011;5346;48.766;8.674;2022-11-11T02:50:05;4.97;;;1.53;;
10596;SDS011;5346;48.766;8.674;2022-11-11T02:52:33;4.47;;;1.47;;
10596;SDS011;5346;48.766;8.674;2022-11-11T02:55:07;2.50;;;1.30;;
10596;SDS011;5346;48.766;8.674;2022-11-11T02:57:41;1.67;;;1.10;;
10596;SDS011;5346;48.766;8.674;2022-11-11T03:00:23;4.77;;;1.40;;
10596;SDS011;5346;48.766;8.674;2022-11-11T03:02:51;4.50;;;1.43;;
10596;SDS011;5346;48.766;8.674;2022-11-11T03:05:18;4.93;;;1.30;;
10596;SDS011;5346;48.766;8.674;2022-11-11T03:07:53;2.10;;;1.10;;
10596;SDS011;5346;48.766;8.674;2022-11-11T03:10:20;5.87;;;1.50;;
10596;SDS011;5346;48.766;8.674;2022-11-11T03:12:48;5.03;;;1.30;;
10596;SDS011;5346;48.766;8.674;2022-11-11T03:15:22;3.93;;;1.40;;
10596;SDS011;5346;48.766;8.674;2022-11-11T03:17:49;4.67;;;1.30;;
10596;SDS011;5346;48.766;8.674;2022-11-11T03:20:18;3.00;;;1.03;;
10596;SDS011;5346;48.766;8.674;2022-11-11T03:23:11;4.00;;;1.13;;
10596;SDS011;5346;48.766;8.674;2022-11-11T03:25:44;5.67;;;1.40;;
10596;SDS011;5346;48.766;8.674;2022-11-11T03:28:23;3.07;;;1.30;;
10596;SDS011;5346;48.766;8.674;2022-11-11T03:30:52;3.00;;;1.43;;
10596;SDS011;5346;48.766;8.674;2022-11-11T03:33:29;4.37;;;1.30;;
10596;SDS011;5346;48.766;8.674;2022-11-11T03:35:57;1.57;;;1.20;;
10596;SDS011;5346;48.766;8.674;2022-11-11T03:38:25;3.23;;;1.30;;
10596;SDS011;5346;48.766;8.674;2022-11-11T03:40:59;2.03;;;1.00;;
10596;SDS011;5346;48.766;8.674;2022-11-11T03:43:27;3.07;;;1.10;;
10596;SDS011;5346;48.766;8.674;2022-11-11T03:45:58;3.73;;;1.30;;
10596;SDS011;5346;48.766;8.674;2022-11-11T03:48:33;3.37;;;1.60;;
10596;SDS011;5346;48.766;8.674;2022-11-11T03:51:00;4.33;;;1.47;;
10596;SDS011;5346;48.766;8.674;2022-11-11T03:53:28;2.53;;;1.30;;
10596;SDS011;5346;48.766;8.674;2022-11-11T03:56:09;2.07;;;1.50;;
10596;SDS011;5346;48.766;8.674;2022-11-11T03:58:51;2.63;;;1.30;;
10596;SDS011;5346;48.766;8.674;2022-11-11T04:01:26;3.33;;;1.40;;
10596;SDS011;5346;48.766;8.674;2022-11-11T04:04:12;3.17;;;1.60;;
10596;SDS011;5346;48.766;8.674;2022-11-11T04:07:04;2.37;;;1.20;;
10596;SDS011;5346;48.766;8.674;2022-11-11T04:09:53;3.43;;;1.33;;
10596;SDS011;5346;48.766;8.674;2022-11-11T04:12:46;3.17;;;1.40;;
10596;SDS011;5346;48.766;8.674;2022-11-11T04:15:36;2.83;;;1.20;;
10596;SDS011;5346;48.766;8.674;2022-11-11T04:18:29;1.00;;;0.87;;
10596;SDS011;5346;48.766;8.674;2022-11-11T04:21:15;7.07;;;1.40;;
10596;SDS011;5346;48.766;8.674;2022-11-11T04:24:13;4.30;;;1.30;;
10596;SDS011;5346;48.766;8.674;2022-11-11T04:27:01;3.13;;;1.30;;
10596;SDS011;5346;48.766;8.674;2022-11-11T04:29:39;5.10;;;1.20;;
10596;SDS011;5346;48.766;8.674;2022-11-11T04:32:07;4.37;;;1.50;;
10596;SDS011;5346;48.766;8.674;2022-11-11T04:35:03;4.07;;;1.50;;
10596;SDS011;5346;48.766;8.674;2022-11-11T04:37:37;3.93;;;1.27;;
10596;SDS011;5346;48.766;8.674;2022-11-11T04:40:18;2.40;;;1.13;;
10596;SDS011;5346;48.766;8.674;2022-11-11T04:43:04;3.80;;;2.20;;
10596;SDS011;5346;48.766;8.674;2022-11-11T04:45:38;1.43;;;1.07;;
10596;SDS011;5346;48.766;8.674;2022-11-11T04:48:06;3.50;;;1.30;;
10596;SDS011;5346;48.766;8.674;2022-11-11T04:50:39;1.60;;;0.90;;
10596;SDS011;5346;48.766;8.674;2022-11-11T04:53:15;3.17;;;1.10;;
10596;SDS011;5346;48.766;8.674;2022-11-11T04:55:43;2.33;;;1.13;;
10596;SDS011;5346;48.766;8.674;2022-11-11T04:58:42;2.33;;;1.00;;
10596;SDS011;5346;48.766;8.674;2022-11-11T05:01:11;2.30;;;0.83;;
10596;SDS011;5346;48.766;8.674;2022-11-11T05:04:08;1.70;;;1.10;;
10596;SDS011;5346;48.766;8.674;2022-11-11T05:06:35;3.87;;;1.13;;
10596;SDS011;5346;48.766;8.674;2022-11-11T05:09:28;2.87;;;1.20;;
10596;SDS011;5346;48.766;8.674;2022-11-11T05:11:55;3.57;;;1.20;;
10596;SDS011;5346;48.766;8.674;2022-11-11T05:14:23;3.13;;;1.33;;
10596;SDS011;5346;48.766;8.674;2022-11-11T05:17:15;2.63;;;1.10;;
10596;SDS011;5346;48.766;8.674;2022-11-11T05:20:01;3.17;;;1.27;;
10596;SDS011;5346;48.766;8.674;2022-11-11T05:22:54;3.30;;;1.10;;
10596;SDS011;5346;48.766;8.674;2022-11-11T05:25:21;3.87;;;1.17;;
10596;SDS011;5346;48.766;8.674;2022-11-11T05:27:52;2.57;;;0.90;;
10596;SDS011;5346;48.766;8.674;2022-11-11T05:30:26;3.23;;;1.20;;
10596;SDS011;5346;48.766;8.674;2022-11-11T05:32:53;2.53;;;1.10;;
10596;SDS011;5346;48.766;8.674;2022-11-11T05:35:21;4.20;;;1.40;;
10596;SDS011;5346;48.766;8.674;2022-11-11T05:38:00;4.00;;;1.40;;
10596;SDS011;5346;48.766;8.674;2022-11-11T05:40:54;2.50;;;1.30;;
10596;SDS011;5346;48.766;8.674;2022-11-11T05:43:35;4.83;;;1.30;;
10596;SDS011;5346;48.766;8.674;2022-11-11T05:46:02;2.10;;;1.10;;
10596;SDS011;5346;48.766;8.674;2022-11-11T05:48:30;4.30;;;1.10;;
10596;SDS011;5346;48.766;8.674;2022-11-11T05:51:05;4.37;;;1.10;;
10596;SDS011;5346;48.766;8.674;2022-11-11T05:53:52;1.90;;;0.93;;
10596;SDS011;5346;48.766;8.674;2022-11-11T05:56:34;1.87;;;1.20;;
10596;SDS011;5346;48.766;8.674;2022-11-11T05:59:16;1.63;;;1.00;;
10596;SDS011;5346;48.766;8.674;2022-11-11T06:01:51;2.57;;;1.10;;
10596;SDS011;5346;48.766;8.674;2022-11-11T06:04:19;1.40;;;0.90;;
10596;SDS011;5346;48.766;8.674;2022-11-11T06:06:46;1.43;;;1.20;;
10596;SDS011;5346;48.766;8.674;2022-11-11T06:09:20;2.00;;;0.83;;
10596;SDS011;5346;48.766;8.674;2022-11-11T06:11:47;3.13;;;1.10;;
10596;SDS011;5346;48.766;8.674;2022-11-11T06:14:15;3.83;;;0.97;;
10596;SDS011;5346;48.766;8.674;2022-11-11T06:16:50;2.20;;;0.90;;
10596;SDS011;5346;48.766;8.674;2022-11-11T06:19:17;2.43;;;1.00;;
10596;SDS011;5346;48.766;8.674;2022-11-11T06:21:44;3.53;;;1.00;;
10596;SDS011;5346;48.766;8.674;2022-11-11T06:24:31;1.57;;;1.10;;
10596;SDS011;5346;48.766;8.674;2022-11-11T06:26:59;2.50;;;1.00;;
10596;SDS011;5346;48.766;8.674;2022-11-11T06:29:27;1.13;;;0.67;;
10596;SDS011;5346;48.766;8.674;2022-11-11T06:32:01;1.67;;;1.10;;
10596;SDS011;5346;48.766;8.674;2022-11-11T06:34:29;4.10;;;0.93;;
10596;SDS011;5346;48.766;8.674;2022-11-11T06:36:56;2.80;;;0.83;;
10596;SDS011;5346;48.766;8.674;2022-11-11T06:39:31;2.77;;;1.10;;
10596;SDS011;5346;48.766;8.674;2022-11-11T06:41:58;3.17;;;1.10;;
10596;SDS011;5346;48.766;8.674;2022-11-11T06:44:26;1.50;;;1.00;;
10596;SDS011;5346;48.766;8.674;2022-11-11T06:47:00;3.13;;;0.80;;
10596;SDS011;5346;48.766;8.674;2022-11-11T06:49:28;3.27;;;1.93;;
10596;SDS011;5346;48.766;8.674;2022-11-11T06:51:55;3.87;;;1.00;;
10596;SDS011;5346;48.766;8.674;2022-11-11T06:54:30;2.67;;;0.70;;
10596;SDS011;5346;48.766;8.674;2022-11-11T06:57:04;2.40;;;0.70;;
10596;SDS011;5346;48.766;8.674;2022-11-11T06:59:39;2.10;;;0.70;;
10596;SDS011;5346;48.766;8.674;2022-11-11T07:02:13;4.10;;;1.20;;
10596;SDS011;5346;48.766;8.674;2022-11-11T07:04:47;0.97;;;0.80;;
10596;SDS011;5346;48.766;8.674;2022-11-11T07:07:14;0.70;;;0.70;;
10596;SDS011;5346;48.766;8.674;2022-11-11T07:09:42;2.47;;;0.93;;
10596;SDS011;5346;48.766;8.674;2022-11-11T07:12:17;1.50;;;0.67;;
10596;SDS011;5346;48.766;8.674;2022-11-11T07:14:45;1.53;;;0.93;;
10596;SDS011;5346;48.766;8.674;2022-11-11T07:17:13;2.53;;;0.70;;
10596;SDS011;5346;48.766;8.674;2022-11-11T07:19:49;1.90;;;0.80;;
10596;SDS011;5346;48.766;8.674;2022-11-11T07:22:17;1.13;;;0.77;;
10596;SDS011;5346;48.766;8.674;2022-11-11T07:24:44;0.77;;;0.63;;
10596;SDS011;5346;48.766;8.674;2022-11-11T07:27:19;1.27;;;0.80;;
10596;SDS011;5346;48.766;8.674;2022-11-11T07:29:46;2.07;;;0.70;;
10596;SDS011;5346;48.766;8.674;2022-11-11T07:32:14;1.27;;;0.70;;
10596;SDS011;5346;48.766;8.674;2022-11-11T07:34:49;1.47;;;0.73;;
10596;SDS011;5346;48.766;8.674;2022-11-11T07:37:16;1.33;;;0.70;;
10596;SDS011;5346;48.766;8.674;2022-11-11T07:39:45;3.07;;;0.50;;
10596;SDS011;5346;48.766;8.674;2022-11-11T07:42:20;1.77;;;0.90;;
10596;SDS011;5346;48.766;8.674;2022-11-11T07:45:02;1.77;;;0.80;;
10596;SDS011;5346;48.766;8.674;2022-11-11T07:47:37;0.83;;;0.70;;
10596;SDS011;5346;48.766;8.674;2022-11-11T07:50:07;0.83;;;0.60;;
10596;SDS011;5346;48.766;8.674;2022-11-11T07:52:47;1.30;;;0.47;;
10596;SDS011;5346;48.766;8.674;2022-11-11T07:55:15;2.40;;;0.80;;
10596;SDS011;5346;48.766;8.674;2022-11-11T07:57:43;0.40;;;0.30;;
10596;SDS011;5346;48.766;8.674;2022-11-11T08:00:17;0.50;;;0.50;;
10596;SDS011;5346;48.766;8.674;2022-11-11T08:02:51;0.85;;;0.70;;
10596;SDS011;5346;48.766;8.674;2022-11-11T08:05:34;0.68;;;0.60;;
10596;SDS011;5346;48.766;8.674;2022-11-11T08:08:04;0.82;;;0.60;;
10596;SDS011;5346;48.766;8.674;2022-11-11T08:10:40;0.63;;;0.63;;
10596;SDS011;5346;48.766;8.674;2022-11-11T08:13:09;1.27;;;0.80;;
10596;SDS011;5346;48.766;8.674;2022-11-11T08:16:08;3.95;;;1.08;;
10596;SDS011;5346;48.766;8.674;2022-11-11T08:18:40;1.30;;;0.40;;
10596;SDS011;5346;48.766;8.674;2022-11-11T08:21:17;0.75;;;0.65;;
10596;SDS011;5346;48.766;8.674;2022-11-11T08:23:46;0.73;;;0.63;;
10596;SDS011;5346;48.766;8.674;2022-11-11T08:26:34;1.05;;;0.30;;
10596;SDS011;5346;48.766;8.674;2022-11-11T08:32:12;1.10;;;0.70;;
10596;SDS011;5346;48.766;8.674;2022-11-11T08:34:47;0.70;;;0.70;;
10596;SDS011;5346;48.766;8.674;2022-11-11T08:37:14;2.63;;;0.60;;
10596;SDS011;5346;48.766;8.674;2022-11-11T08:39:42;1.83;;;0.80;;
10596;SDS011;5346;48.766;8.674;2022-11-11T08:42:16;0.80;;;0.70;;
10596;SDS011;5346;48.766;8.674;2022-11-11T08:44:43;3.15;;;0.60;;
10596;SDS011;5346;48.766;8.674;2022-11-11T08:47:12;1.05;;;0.60;;
10596;SDS011;5346;48.766;8.674;2022-11-11T08:49:46;0.85;;;0.50;;
10596;SDS011;5346;48.766;8.674;2022-11-11T08:52:16;1.98;;;0.60;;
10596;SDS011;5346;48.766;8.674;2022-11-11T08:54:43;0.50;;;0.50;;
10596;SDS011;5346;48.766;8.674;2022-11-11T08:57:24;0.93;;;0.63;;
10596;SDS011;5346;48.766;8.674;2022-11-11T08:59:58;1.90;;;0.60;;
10596;SDS011;5346;48.766;8.674;2022-11-11T09:02:32;1.38;;;0.70;;
10596;SDS011;5346;48.766;8.674;2022-11-11T09:04:59;0.80;;;0.63;;
10596;SDS011;5346;48.766;8.674;2022-11-11T09:07:27;0.73;;;0.68;;
10596;SDS011;5346;48.766;8.674;2022-11-11T09:10:02;1.00;;;0.60;;
10596;SDS011;5346;48.766;8.674;2022-11-11T09:12:30;0.47;;;0.35;;
10596;SDS011;5346;48.766;8.674;2022-11-11T09:14:57;1.55;;;0.77;;
10596;SDS011;5346;48.766;8.674;2022-11-11T09:17:33;2.40;;;0.75;;
10596;SDS011;5346;48.766;8.674;2022-11-11T09:20:00;0.50;;;0.47;;
10596;SDS011;5346;48.766;8.674;2022-11-11T09:22:28;0.70;;;0.60;;
10596;SDS011;5346;48.766;8.674;2022-11-11T09:25:02;1.17;;;0.70;;
10596;SDS011;5346;48.766;8.674;2022-11-11T09:27:33;2.03;;;0.60;;
10596;SDS011;5346;48.766;8.674;2022-11-11T09:30:00;1.60;;;0.70;;
10596;SDS011;5346;48.766;8.674;2022-11-11T09:32:35;0.40;;;0.40;;
10596;SDS011;5346;48.766;8.674;2022-11-11T09:35:02;3.28;;;0.90;;
10596;SDS011;5346;48.766;8.674;2022-11-11T09:37:30;1.33;;;0.60;;
10596;SDS011;5346;48.766;8.674;2022-11-11T09:40:04;0.45;;;0.45;;
10596;SDS011;5346;48.766;8.674;2022-11-11T09:42:43;1.95;;;0.80;;
10596;SDS011;5346;48.766;8.674;2022-11-11T09:45:25;0.95;;;0.80;;
10596;SDS011;5346;48.766;8.674;2022-11-11T09:51:22;1.15;;;0.75;;
10596;SDS011;5346;48.766;8.674;2022-11-11T09:54:10;1.13;;;0.80;;
10596;SDS011;5346;48.766;8.674;2022-11-11T09:56:59;0.35;;;0.35;;
10596;SDS011;5346;48.766;8.674;2022-11-11T09:59:51;0.77;;;0.45;;
10596;SDS011;5346;48.766;8.674;2022-11-11T10:02:31;1.77;;;0.55;;
10596;SDS011;5346;48.766;8.674;2022-11-11T10:07:54;0.55;;;0.55;;
10596;SDS011;5346;48.766;8.674;2022-11-11T10:10:26;0.80;;;0.60;;
10596;SDS011;5346;48.766;8.674;2022-11-11T10:13:26;1.33;;;0.68;;
10596;SDS011;5346;48.766;8.674;2022-11-11T10:19:18;1.08;;;0.70;;
10596;SDS011;5346;48.766;8.674;2022-11-11T10:21:49;1.50;;;0.77;;
10596;SDS011;5346;48.766;8.674;2022-11-11T10:24:41;0.60;;;0.57;;
10596;SDS011;5346;48.766;8.674;2022-11-11T10:27:19;0.40;;;0.40;;
10596;SDS011;5346;48.766;8.674;2022-11-11T10:29:57;0.45;;;0.30;;
10596;SDS011;5346;48.766;8.674;2022-11-11T10:32:27;1.50;;;0.90;;
10596;SDS011;5346;48.766;8.674;2022-11-11T10:35:19;0.70;;;0.45;;
10596;SDS011;5346;48.766;8.674;2022-11-11T10:43:24;0.47;;;0.47;;
10596;SDS011;5346;48.766;8.674;2022-11-11T10:46:01;2.05;;;0.70;;
10596;SDS011;5346;48.766;8.674;2022-11-11T10:48:42;0.40;;;0.40;;
10596;SDS011;5346;48.766;8.674;2022-11-11T10:51:25;1.00;;;0.70;;
10596;SDS011;5346;48.766;8.674;2022-11-11T10:53:59;2.00;;;0.70;;
10596;SDS011;5346;48.766;8.674;2022-11-11T10:57:13;0.75;;;0.40;;
10596;SDS011;5346;48.766;8.674;2022-11-11T10:59:59;0.57;;;0.50;;
10596;SDS011;5346;48.766;8.674;2022-11-11T11:06:01;0.65;;;0.63;;
10596;SDS011;5346;48.766;8.674;2022-11-11T11:08:58;0.65;;;0.65;;
10596;SDS011;5346;48.766;8.674;2022-11-11T11:11:49;1.63;;;0.70;;
10596;SDS011;5346;48.766;8.674;2022-11-11T11:14:44;1.40;;;1.08;;
10596;SDS011;5346;48.766;8.674;2022-11-11T11:17:14;3.08;;;1.35;;
10596;SDS011;5346;48.766;8.674;2022-11-11T11:22:47;1.70;;;1.17;;
10596;SDS011;5346;48.766;8.674;2022-11-11T11:25:23;2.25;;;1.35;;
10596;SDS011;5346;48.766;8.674;2022-11-11T11:27:53;1.60;;;1.40;;
10596;SDS011;5346;48.766;8.674;2022-11-11T11:31:00;2.50;;;1.20;;
10596;SDS011;5346;48.766;8.674;2022-11-11T11:36:42;1.50;;;1.25;;
10596;SDS011;5346;48.766;8.674;2022-11-11T11:39:09;1.45;;;1.10;;
10596;SDS011;5346;48.766;8.674;2022-11-11T11:41:38;1.30;;;1.20;;
10596;SDS011;5346;48.766;8.674;2022-11-11T11:46:53;3.63;;;1.30;;
10596;SDS011;5346;48.766;8.674;2022-11-11T11:52:23;3.47;;;2.97;;
10596;SDS011;5346;48.766;8.674;2022-11-11T11:55:18;2.45;;;2.10;;
10596;SDS011;5346;48.766;8.674;2022-11-11T12:00:42;2.92;;;1.80;;
10596;SDS011;5346;48.766;8.674;2022-11-11T12:14:31;4.95;;;1.90;;
10596;SDS011;5346;48.766;8.674;2022-11-11T12:17:47;8.93;;;3.05;;
10596;SDS011;5346;48.766;8.674;2022-11-11T12:20:29;2.80;;;1.98;;
10596;SDS011;5346;48.766;8.674;2022-11-11T12:23:50;2.15;;;1.48;;
10596;SDS011;5346;48.766;8.674;2022-11-11T12:32:25;10.20;;;1.60;;
10596;SDS011;5346;48.766;8.674;2022-11-11T12:35:07;3.60;;;1.63;;
10596;SDS011;5346;48.766;8.674;2022-11-11T12:38:05;1.98;;;1.40;;
10596;SDS011;5346;48.766;8.674;2022-11-11T12:43:52;2.55;;;1.50;;
10596;SDS011;5346;48.766;8.674;2022-11-11T12:46:47;2.65;;;1.40;;
10596;SDS011;5346;48.766;8.674;2022-11-11T13:12:46;1.75;;;1.25;;
10596;SDS011;5346;48.766;8.674;2022-11-11T13:15:26;2.75;;;1.20;;
10596;SDS011;5346;48.766;8.674;2022-11-11T13:18:04;1.48;;;1.38;;
10596;SDS011;5346;48.766;8.674;2022-11-11T13:20:52;3.25;;;1.27;;
10596;SDS011;5346;48.766;8.674;2022-11-11T13:23:21;1.73;;;1.63;;
10596;SDS011;5346;48.766;8.674;2022-11-11T13:25:59;2.15;;;1.60;;
10596;SDS011;5346;48.766;8.674;2022-11-11T13:28:38;1.73;;;1.45;;
10596;SDS011;5346;48.766;8.674;2022-11-11T13:31:23;1.60;;;1.50;;
10596;SDS011;5346;48.766;8.674;2022-11-11T13:34:01;2.55;;;1.35;;
10596;SDS011;5346;48.766;8.674;2022-11-11T13:36:43;1.75;;;1.48;;
10596;SDS011;5346;48.766;8.674;2022-11-11T13:39:39;2.38;;;1.38;;
10596;SDS011;5346;48.766;8.674;2022-11-11T13:42:25;2.90;;;1.50;;
10596;SDS011;5346;48.766;8.674;2022-11-11T13:44:57;2.33;;;1.42;;
10596;SDS011;5346;48.766;8.674;2022-11-11T13:47:38;1.58;;;1.27;;
10596;SDS011;5346;48.766;8.674;2022-11-11T13:50:25;4.05;;;1.60;;
10596;SDS011;5346;48.766;8.674;2022-11-11T13:53:04;1.60;;;1.40;;
10596;SDS011;5346;48.766;8.674;2022-11-11T13:55:36;2.65;;;1.60;;
10596;SDS011;5346;48.766;8.674;2022-11-11T13:58:24;3.25;;;1.85;;
10596;SDS011;5346;48.766;8.674;2022-11-11T14:01:07;2.40;;;1.73;;
10596;SDS011;5346;48.766;8.674;2022-11-11T14:13:53;4.10;;;2.75;;
10596;SDS011;5346;48.766;8.674;2022-11-11T14:21:52;2.22;;;1.40;;
10596;SDS011;5346;48.766;8.674;2022-11-11T14:29:37;1.95;;;1.38;;
10596;SDS011;5346;48.766;8.674;2022-11-11T14:32:44;4.10;;;1.23;;
10596;SDS011;5346;48.766;8.674;2022-11-11T14:35:32;1.55;;;1.30;;
10596;SDS011;5346;48.766;8.674;2022-11-11T14:40:46;3.25;;;1.55;;
10596;SDS011;5346;48.766;8.674;2022-11-11T14:46:06;2.60;;;1.60;;
10596;SDS011;5346;48.766;8.674;2022-11-11T14:51:39;3.35;;;1.80;;
10596;SDS011;5346;48.766;8.674;2022-11-11T14:54:35;2.05;;;1.75;;
10596;SDS011;5346;48.766;8.674;2022-11-11T14:57:25;1.60;;;1.40;;
10596;SDS011;5346;48.766;8.674;2022-11-11T15:00:23;3.50;;;1.48;;
10596;SDS011;5346;48.766;8.674;2022-11-11T15:02:54;2.72;;;1.70;;
10596;SDS011;5346;48.766;8.674;2022-11-11T15:08:29;2.30;;;1.40;;
10596;SDS011;5346;48.766;8.674;2022-11-11T15:33:52;9.57;;;5.13;;
10596;SDS011;5346;48.766;8.674;2022-11-11T15:39:21;5.97;;;4.07;;
10596;SDS011;5346;48.766;8.674;2022-11-11T15:41:52;7.22;;;5.50;;
10596;SDS011;5346;48.766;8.674;2022-11-11T15:44:28;5.88;;;4.35;;
10596;SDS011;5346;48.766;8.674;2022-11-11T15:46:58;5.20;;;4.25;;
10596;SDS011;5346;48.766;8.674;2022-11-11T15:49:36;5.50;;;4.60;;
10596;SDS011;5346;48.766;8.674;2022-11-11T15:54:49;6.47;;;4.13;;
10596;SDS011;5346;48.766;8.674;2022-11-11T16:00:46;11.38;;;6.75;;
10596;SDS011;5346;48.766;8.674;2022-11-11T16:05:46;5.70;;;3.73;;
10596;SDS011;5346;48.766;8.674;2022-11-11T16:08:21;4.80;;;2.73;;
10596;SDS011;5346;48.766;8.674;2022-11-11T16:10:54;4.83;;;2.97;;
10596;SDS011;5346;48.766;8.674;2022-11-11T16:13:33;4.33;;;2.93;;
10596;SDS011;5346;48.766;8.674;2022-11-11T16:18:50;4.07;;;3.03;;
10596;SDS011;5346;48.766;8.674;2022-11-11T16:21:24;6.60;;;2.70;;
10596;SDS011;5346;48.766;8.674;2022-11-11T16:24:00;7.47;;;3.07;;
10596;SDS011;5346;48.766;8.674;2022-11-11T16:26:31;5.47;;;3.90;;
10596;SDS011;5346;48.766;8.674;2022-11-11T16:28:59;7.70;;;4.10;;
10596;SDS011;5346;48.766;8.674;2022-11-11T16:37:05;7.40;;;3.70;;
10596;SDS011;5346;48.766;8.674;2022-11-11T16:39:41;5.37;;;3.17;;
10596;SDS011;5346;48.766;8.674;2022-11-11T16:42:17;5.73;;;3.27;;
10596;SDS011;5346;48.766;8.674;2022-11-11T16:44:53;5.40;;;3.63;;
10596;SDS011;5346;48.766;8.674;2022-11-11T16:47:40;8.30;;;3.37;;
10596;SDS011;5346;48.766;8.674;2022-11-11T16:52:59;6.60;;;3.40;;
10596;SDS011;5346;48.766;8.674;2022-11-11T16:55:45;4.23;;;3.07;;
10596;SDS011;5346;48.766;8.674;2022-11-11T16:58:19;7.67;;;3.60;;
10596;SDS011;5346;48.766;8.674;2022-11-11T17:01:01;10.57;;;3.43;;
10596;SDS011;5346;48.766;8.674;2022-11-11T17:03:36;10.03;;;4.03;;
10596;SDS011;5346;48.766;8.674;2022-11-11T17:09:35;8.60;;;4.20;;
10596;SDS011;5346;48.766;8.674;2022-11-11T17:12:05;6.30;;;4.00;;
10596;SDS011;5346;48.766;8.674;2022-11-11T17:14:40;13.50;;;4.73;;
10596;SDS011;5346;48.766;8.674;2022-11-11T17:17:08;9.33;;;4.27;;
10596;SDS011;5346;48.766;8.674;2022-11-11T17:19:36;16.23;;;9.10;;
10596;SDS011;5346;48.766;8.674;2022-11-11T17:22:11;13.50;;;8.33;;
10596;SDS011;5346;48.766;8.674;2022-11-11T17:24:39;9.23;;;6.87;;
10596;SDS011;5346;48.766;8.674;2022-11-11T17:27:07;13.70;;;7.67;;
10596;SDS011;5346;48.766;8.674;2022-11-11T17:29:42;8.77;;;6.00;;
10596;SDS011;5346;48.766;8.674;2022-11-11T17:32:09;7.57;;;4.87;;
10596;SDS011;5346;48.766;8.674;2022-11-11T17:34:37;12.40;;;4.70;;
10596;SDS011;5346;48.766;8.674;2022-11-11T17:37:11;10.87;;;5.87;;
10596;SDS011;5346;48.766;8.674;2022-11-11T17:39:38;12.63;;;8.37;;
10596;SDS011;5346;48.766;8.674;2022-11-11T17:42:10;12.17;;;8.60;;
10596;SDS011;5346;48.766;8.674;2022-11-11T17:44:46;15.33;;;9.97;;
10596;SDS011;5346;48.766;8.674;2022-11-11T17:47:14;9.63;;;7.13;;
10596;SDS011;5346;48.766;8.674;2022-11-11T17:49:42;11.53;;;9.70;;
10596;SDS011;5346;48.766;8.674;2022-11-11T17:52:23;16.43;;;7.70;;
10596;SDS011;5346;48.766;8.674;2022-11-11T17:54:51;13.17;;;7.30;;
10596;SDS011;5346;48.766;8.674;2022-11-11T17:57:25;13.87;;;7.17;;
10596;SDS011;5346;48.766;8.674;2022-11-11T18:00:06;15.97;;;10.50;;
10596;SDS011;5346;48.766;8.674;2022-11-11T18:02:41;10.87;;;8.17;;
10596;SDS011;5346;48.766;8.674;2022-11-11T18:05:09;12.40;;;6.80;;
10596;SDS011;5346;48.766;8.674;2022-11-11T18:07:37;11.90;;;8.50;;
10596;SDS011;5346;48.766;8.674;2022-11-11T18:10:11;15.60;;;9.67;;
10596;SDS011;5346;48.766;8.674;2022-11-11T18:12:40;12.73;;;8.97;;
10596;SDS011;5346;48.766;8.674;2022-11-11T18:15:08;16.97;;;9.47;;
10596;SDS011;5346;48.766;8.674;2022-11-11T18:17:43;12.43;;;8.83;;
10596;SDS011;5346;48.766;8.674;2022-11-11T18:20:12;16.17;;;9.33;;
10596;SDS011;5346;48.766;8.674;2022-11-11T18:22:40;15.13;;;10.93;;
10596;SDS011;5346;48.766;8.674;2022-11-11T18:25:14;18.53;;;12.53;;
10596;SDS011;5346;48.766;8.674;2022-11-11T18:27:42;15.27;;;11.03;;
10596;SDS011;5346;48.766;8.674;2022-11-11T18:30:10;15.93;;;10.83;;
10596;SDS011;5346;48.766;8.674;2022-11-11T18:32:45;12.73;;;9.73;;
10596;SDS011;5346;48.766;8.674;2022-11-11T18:35:13;13.43;;;9.93;;
10596;SDS011;5346;48.766;8.674;2022-11-11T18:37:42;18.00;;;10.33;;
10596;SDS011;5346;48.766;8.674;2022-11-11T18:40:17;13.17;;;9.77;;
10596;SDS011;5346;48.766;8.674;2022-11-11T18:42:44;13.83;;;8.93;;